createdAt,value
2022-11-22T00:00:17.084Z,98828.63
2022-11-22T00:03:07.035Z,98822.50
2022-11-22T00:05:55.719Z,98833.75
2022-11-22T00:08:44.354Z,98831.53
2022-11-22T00:11:32.928Z,98819.84
2022-11-22T00:14:21.583Z,98822.25
2022-11-22T00:17:10.229Z,98821.94
2022-11-22T00:20:00.174Z,98807.00
2022-11-22T00:22:48.764Z,98810.66
2022-11-22T00:25:37.404Z,98803.72
2022-11-22T00:28:26.087Z,98801.69
2022-11-22T00:31:14.734Z,98787.06
2022-11-22T00:34:03.280Z,98788.94
2022-11-22T00:36:53.281Z,98785.09
2022-11-22T00:39:41.956Z,98777.09
2022-11-22T00:42:30.557Z,98778.72
2022-11-22T00:45:19.217Z,98772.97
2022-11-22T00:48:08.198Z,98771.78
2022-11-22T00:50:57.086Z,98782.44
2022-11-22T00:53:47.067Z,98785.69
2022-11-22T00:56:35.759Z,98791.03
2022-11-22T00:59:24.351Z,98793.91
2022-11-22T01:02:13.052Z,98796.94
2022-11-22T01:05:01.704Z,98797.97
2022-11-22T01:07:50.983Z,98791.03
2022-11-22T01:10:40.989Z,98801.06
2022-11-22T01:13:30.612Z,98795.75
2022-11-22T01:16:19.222Z,98793.06
2022-11-22T01:19:07.893Z,98793.06
2022-11-22T01:21:56.500Z,98782.44
2022-11-22T01:24:45.187Z,98777.47
2022-11-22T01:27:35.178Z,98775.06
2022-11-22T01:30:23.826Z,98767.28
2022-11-22T01:33:13.259Z,98768.53
2022-11-22T01:36:01.885Z,98761.94
2022-11-22T01:38:50.462Z,98757.09
2022-11-22T01:41:39.102Z,98754.19
2022-11-22T01:44:31.099Z,98759.50
2022-11-22T01:47:22.270Z,98763.22
2022-11-22T01:50:17.352Z,98761.38
2022-11-22T01:53:08.811Z,98769.81
2022-11-22T01:55:58.635Z,98760.56
2022-11-22T01:58:49.576Z,98766.91
2022-11-22T02:01:39.654Z,98756.84
2022-11-22T02:04:29.280Z,98756.63
2022-11-22T02:07:21.233Z,98760.34
2022-11-22T02:10:10.444Z,98763.22
2022-11-22T02:13:00.253Z,98763.22
2022-11-22T02:15:48.815Z,98750.16
2022-11-22T02:18:39.248Z,98753.03
2022-11-22T02:21:27.864Z,98748.53
2022-11-22T02:24:20.427Z,98749.53
2022-11-22T02:27:10.379Z,98743.41
2022-11-22T02:29:59.072Z,98737.06
2022-11-22T02:32:47.728Z,98739.94
2022-11-22T02:35:36.405Z,98737.06
2022-11-22T02:38:26.615Z,98737.06
2022-11-22T02:41:15.318Z,98743.41
2022-11-22T02:44:07.484Z,98746.06
2022-11-22T02:46:56.648Z,98737.50
2022-11-22T02:49:45.284Z,98730.56
2022-11-22T02:52:33.897Z,98732.19
2022-11-22T02:55:22.509Z,98729.06
2022-11-22T02:58:11.225Z,98712.06
2022-11-22T03:01:03.012Z,98705.09
2022-11-22T03:03:51.734Z,98703.47
2022-11-22T03:06:40.302Z,98703.28
2022-11-22T03:09:29.554Z,98706.16
2022-11-22T03:12:18.381Z,98716.78
2022-11-22T03:15:07.934Z,98717.25
2022-11-22T03:18:00.961Z,98718.31
2022-11-22T03:20:49.617Z,98717.25
2022-11-22T03:23:38.354Z,98727.09
2022-11-22T03:26:26.969Z,98723.63
2022-11-22T03:29:15.716Z,98730.31
2022-11-22T03:32:04.379Z,98728.50
2022-11-22T03:34:54.360Z,98730.56
2022-11-22T03:37:43.009Z,98719.91
2022-11-22T03:40:31.848Z,98721.53
2022-11-22T03:43:20.564Z,98723.16
2022-11-22T03:46:14.242Z,98707.03
2022-11-22T03:49:02.804Z,98711.31
2022-11-22T03:51:52.915Z,98696.75
2022-11-22T03:54:41.546Z,98700.09
2022-11-22T03:57:30.155Z,98702.75
2022-11-22T04:00:19.320Z,98693.53
2022-11-22T04:03:07.877Z,98693.53
2022-11-22T04:05:56.592Z,98691.69
2022-11-22T04:08:46.653Z,98686.78
2022-11-22T04:11:35.317Z,98688.41
2022-11-22T04:14:41.791Z,98692.13
2022-11-22T04:17:44.660Z,98691.69
2022-11-22T04:20:50.621Z,98676.72
2022-11-22T04:23:39.215Z,98670.81
2022-11-22T04:26:28.155Z,98680.22
2022-11-22T04:29:17.097Z,98669.00
2022-11-22T04:32:23.481Z,98666.91
2022-11-22T04:35:12.086Z,98666.53
2022-11-22T04:38:00.680Z,98664.91
2022-11-22T04:40:49.684Z,98670.38
2022-11-22T04:43:57.241Z,98664.91
2022-11-22T04:46:45.924Z,98668.16
2022-11-22T04:49:34.478Z,98669.78
2022-11-22T04:52:40.927Z,98661.00
2022-11-22T04:55:29.454Z,98659.75
2022-11-22T04:58:18.163Z,98656.47
2022-11-22T05:01:08.427Z,98653.22
2022-11-22T05:03:57.053Z,98648.50
2022-11-22T05:06:45.664Z,98649.09
2022-11-22T05:09:34.221Z,98640.50
2022-11-22T05:12:22.807Z,98635.19
2022-11-22T05:15:12.490Z,98645.81
2022-11-22T05:18:02.432Z,98641.69
2022-11-22T05:20:51.645Z,98640.28
2022-11-22T05:24:00.437Z,98647.38
2022-11-22T05:26:49.178Z,98647.00
2022-11-22T05:29:37.734Z,98650.50
2022-11-22T05:32:26.417Z,98649.19
2022-11-22T05:35:16.644Z,98662.75
2022-11-22T05:38:05.232Z,98666.47
2022-11-22T05:40:53.853Z,98669.69
2022-11-22T05:43:42.852Z,98671.78
2022-11-22T05:46:32.166Z,98671.78
2022-11-22T05:49:20.748Z,98665.81
2022-11-22T05:52:10.940Z,98650.25
2022-11-22T05:54:59.604Z,98661.56
2022-11-22T05:57:48.280Z,98658.81
2022-11-22T06:00:36.888Z,98659.50
2022-11-22T06:03:25.507Z,98666.22
2022-11-22T06:06:14.341Z,98664.81
2022-11-22T06:09:04.506Z,98665.06
2022-11-22T06:11:53.188Z,98666.22
2022-11-22T06:14:43.617Z,98670.13
2022-11-22T06:17:32.440Z,98685.44
2022-11-22T06:20:21.056Z,98693.41
2022-11-22T06:23:09.602Z,98695.28
2022-11-22T06:26:00.560Z,98701.41
2022-11-22T06:28:49.896Z,98700.94
2022-11-22T06:31:38.553Z,98695.59
2022-11-22T06:34:27.918Z,98701.19
2022-11-22T06:37:16.665Z,98699.47
2022-11-22T06:40:07.364Z,98703.75
2022-11-22T06:42:57.314Z,98699.31
2022-11-22T06:45:45.931Z,98701.41
2022-11-22T06:48:36.129Z,98706.25
2022-11-22T06:51:26.203Z,98722.69
2022-11-22T06:54:15.158Z,98717.84
2022-11-22T06:57:03.704Z,98721.06
2022-11-22T06:59:53.624Z,98720.25
2022-11-22T07:02:42.217Z,98722.69
2022-11-22T07:05:30.862Z,98714.13
2022-11-22T07:08:19.509Z,98722.91
2022-11-22T07:11:09.701Z,98719.25
2022-11-22T07:14:05.334Z,98723.75
2022-11-22T07:16:57.963Z,98724.31
2022-11-22T07:19:46.522Z,98733.56
2022-11-22T07:22:35.110Z,98743.41
2022-11-22T07:25:23.760Z,98740.75
2022-11-22T07:28:12.411Z,98731.72
2022-11-22T07:31:01.691Z,98733.56
2022-11-22T07:33:51.642Z,98735.44
2022-11-22T07:36:40.208Z,98741.56
2022-11-22T07:39:29.205Z,98742.38
2022-11-22T07:42:22.334Z,98755.09
2022-11-22T07:45:13.948Z,98760.91
2022-11-22T07:48:02.619Z,98751.50
2022-11-22T07:50:52.543Z,98755.56
2022-11-22T07:53:41.158Z,98755.56
2022-11-22T07:56:29.754Z,98763.56
2022-11-22T07:59:18.911Z,98760.06
2022-11-22T08:02:07.731Z,98771.53
2022-11-22T08:04:56.399Z,98759.25
2022-11-22T08:07:48.935Z,98766.22
2022-11-22T08:10:37.587Z,98766.22
2022-11-22T08:13:26.914Z,98773.16
2022-11-22T08:16:17.614Z,98772.34
2022-11-22T08:19:06.421Z,98775.22
2022-11-22T08:21:58.535Z,98778.50
2022-11-22T08:24:48.766Z,98775.94
2022-11-22T08:27:37.407Z,98776.88
2022-11-22T08:30:25.959Z,98773.16
2022-11-22T08:33:14.546Z,98778.50
2022-11-22T08:36:03.166Z,98768.63
2022-11-22T08:38:51.761Z,98776.41
2022-11-22T08:41:41.824Z,98789.13
2022-11-22T08:44:30.500Z,98792.38
2022-11-22T08:47:19.218Z,98794.78
2022-11-22T08:50:08.981Z,98800.94
2022-11-22T08:52:57.639Z,98794.47
2022-11-22T08:55:46.400Z,98806.84
2022-11-22T08:58:36.323Z,98801.97
2022-11-22T09:01:24.933Z,98807.88
2022-11-22T09:04:13.693Z,98808.34
2022-11-22T09:10:11.197Z,98806.25
2022-11-22T09:12:59.771Z,98806.84
2022-11-22T09:15:49.689Z,98805.00
2022-11-22T09:18:38.546Z,98812.75
2022-11-22T09:21:27.419Z,98826.06
2022-11-22T09:24:16.160Z,98826.06
2022-11-22T09:27:04.751Z,98821.56
2022-11-22T09:29:53.333Z,98827.25
2022-11-22T09:32:44.927Z,98834.06
2022-11-22T09:35:33.601Z,98834.06
2022-11-22T09:38:22.181Z,98823.41
2022-11-22T09:41:21.541Z,98838.94
2022-11-22T09:44:15.966Z,98843.22
2022-11-22T09:47:09.761Z,98850.75
2022-11-22T09:50:06.145Z,98843.81
2022-11-22T09:52:57.612Z,98843.34
2022-11-22T09:55:48.452Z,98830.66
2022-11-22T09:58:39.783Z,98826.53
2022-11-22T10:01:29.711Z,98828.94
2022-11-22T10:04:21.556Z,98829.75
2022-11-22T10:07:16.673Z,98842.50
2022-11-22T10:10:06.785Z,98840.84
2022-11-22T10:13:00.406Z,98845.84
2022-11-22T10:15:54.302Z,98846.63
2022-11-22T10:18:46.434Z,98848.69
2022-11-22T10:21:35.352Z,98845.00
2022-11-22T10:24:25.403Z,98858.53
2022-11-22T10:27:15.146Z,98859.78
2022-11-22T10:30:06.221Z,98872.84
2022-11-22T10:33:02.325Z,98869.97
2022-11-22T10:36:01.872Z,98874.50
2022-11-22T10:39:06.784Z,98867.94
2022-11-22T10:42:13.988Z,98880.06
2022-11-22T10:45:07.782Z,98867.94
2022-11-22T10:48:06.791Z,98867.31
2022-11-22T10:51:00.847Z,98859.16
2022-11-22T10:54:03.568Z,98855.19
2022-11-22T10:56:55.971Z,98845.75
2022-11-22T10:59:55.086Z,98844.13
2022-11-22T11:03:03.415Z,98858.00
2022-11-22T11:12:18.865Z,98866.78
2022-11-22T11:15:18.057Z,98867.41
2022-11-22T11:18:12.463Z,98864.50
2022-11-22T11:21:01.431Z,98862.88
2022-11-22T11:23:50.033Z,98859.16
2022-11-22T11:26:38.703Z,98851.06
2022-11-22T11:29:40.304Z,98852.69
2022-11-22T11:32:30.333Z,98849.78
2022-11-22T11:35:19.279Z,98847.34
2022-11-22T11:38:28.264Z,98841.44
2022-11-22T11:41:23.203Z,98842.03
2022-11-22T11:44:28.615Z,98841.66
2022-11-22T11:47:20.679Z,98837.97
2022-11-22T11:50:23.788Z,98828.56
2022-11-22T11:53:18.239Z,98844.53
2022-11-22T11:56:27.736Z,98834.94
2022-11-22T11:59:18.018Z,98832.28
2022-11-22T12:02:13.501Z,98843.75
2022-11-22T12:05:04.157Z,98836.56
2022-11-22T12:07:54.293Z,98839.22
2022-11-22T12:10:46.404Z,98830.66
2022-11-22T12:13:57.653Z,98834.34
2022-11-22T12:16:49.191Z,98838.03
2022-11-22T12:19:52.714Z,98835.97
2022-11-22T12:22:50.289Z,98835.97
2022-11-22T12:25:41.341Z,98839.22
2022-11-22T12:28:30.905Z,98832.28
2022-11-22T12:31:27.183Z,98847.06
2022-11-22T12:34:19.030Z,98839.69
2022-11-22T12:37:11.496Z,98834.34
2022-11-22T12:40:04.005Z,98848.69
2022-11-22T12:42:57.430Z,98847.66
2022-11-22T12:45:50.868Z,98846.47
2022-11-22T12:48:48.551Z,98842.56
2022-11-22T12:51:43.846Z,98845.44
2022-11-22T12:54:36.592Z,98838.50
2022-11-22T12:57:34.495Z,98836.88
2022-11-22T13:00:26.471Z,98827.00
2022-11-22T13:03:17.775Z,98839.06
2022-11-22T13:06:08.669Z,98836.88
2022-11-22T13:09:03.991Z,98830.50
2022-11-22T13:11:57.899Z,98832.59
2022-11-22T13:14:50.026Z,98842.19
2022-11-22T13:17:40.995Z,98840.56
2022-11-22T13:20:32.531Z,98846.47
2022-11-22T13:23:46.607Z,98839.53
2022-11-22T13:26:40.328Z,98843.44
2022-11-22T13:29:30.622Z,98842.19
2022-11-22T13:32:23.295Z,98841.63
2022-11-22T13:35:27.105Z,98841.38
2022-11-22T13:38:18.435Z,98844.59
2022-11-22T13:41:23.623Z,98837.66
2022-11-22T13:44:26.755Z,98836.41
2022-11-22T13:47:51.607Z,98841.72
2022-11-22T13:51:04.019Z,98826.22
2022-11-22T13:54:32.640Z,98830.25
2022-11-22T13:57:33.914Z,98830.50
2022-11-22T14:00:46.650Z,98835.00
2022-11-22T14:03:42.808Z,98841.38
2022-11-22T14:06:32.141Z,98833.16
2022-11-22T14:09:36.179Z,98833.97
2022-11-22T14:12:32.263Z,98834.34
2022-11-22T14:15:40.579Z,98839.06
2022-11-22T14:18:56.409Z,98836.41
2022-11-22T14:21:54.637Z,98838.03
2022-11-22T14:24:54.370Z,98838.50
2022-11-22T14:27:49.580Z,98841.16
2022-11-22T14:30:42.667Z,98833.56
2022-11-22T14:33:31.464Z,98830.50
2022-11-22T14:36:20.117Z,98826.22
2022-11-22T14:39:41.987Z,98837.66
2022-11-22T14:42:57.972Z,98844.59
2022-11-22T14:45:50.560Z,98840.56
2022-11-22T14:48:46.693Z,98845.66
2022-11-22T14:51:35.781Z,98843.81
2022-11-22T14:54:26.737Z,98843.34
2022-11-22T14:57:18.873Z,98837.44
2022-11-22T15:00:18.004Z,98838.50
2022-11-22T15:03:25.203Z,98833.16
2022-11-22T15:09:17.239Z,98836.03
2022-11-22T15:09:59.089Z,98844.28
2022-11-22T15:13:10.187Z,98843.16
2022-11-22T15:57:49.139Z,98886.13
2022-11-22T16:00:37.986Z,98893.53
2022-11-22T16:03:28.749Z,98895.97
2022-11-22T16:06:19.617Z,98893.53
2022-11-22T16:09:08.912Z,98891.91
2022-11-22T16:12:02.227Z,98895.97
2022-11-22T16:14:52.922Z,98894.13
2022-11-22T16:17:55.045Z,98891.91
2022-11-22T16:21:01.614Z,98891.09
2022-11-22T16:24:12.396Z,98897.44
2022-11-22T16:27:02.697Z,98890.50
2022-11-22T16:29:52.934Z,98890.72
2022-11-22T16:32:41.689Z,98891.91
2022-11-22T16:35:30.381Z,98890.88
2022-11-22T16:38:20.362Z,98892.50
2022-11-22T16:41:14.745Z,98891.91
2022-11-22T16:44:04.553Z,98893.63
2022-11-22T16:46:53.155Z,98894.00
2022-11-22T16:49:41.886Z,98906.69
2022-11-22T16:52:30.547Z,98923.88
2022-11-22T16:55:21.764Z,98922.25
2022-11-22T16:58:15.434Z,98926.38
2022-11-22T17:01:04.360Z,98930.88
2022-11-22T17:03:54.983Z,98931.25
2022-11-22T17:06:44.692Z,98931.03
2022-11-22T17:09:34.442Z,98947.94
2022-11-22T17:12:29.165Z,98948.41
2022-11-22T17:15:24.236Z,98960.53
2022-11-22T17:18:13.038Z,98962.91
2022-11-22T17:21:01.925Z,98960.19
2022-11-22T17:23:50.814Z,98954.28
2022-11-22T17:26:39.414Z,98955.56
2022-11-22T17:29:49.358Z,98955.56
2022-11-22T17:32:38.063Z,98960.44
2022-11-22T17:35:27.002Z,98977.63
2022-11-22T17:38:15.607Z,98972.88
2022-11-22T17:41:04.231Z,98963.72
2022-11-22T17:43:53.191Z,98964.44
2022-11-22T17:46:44.145Z,98965.00
2022-11-22T17:49:33.058Z,98975.44
2022-11-22T17:52:22.107Z,98978.97
2022-11-22T17:55:14.324Z,98983.72
2022-11-22T17:58:03.327Z,98980.66
2022-11-22T18:00:51.929Z,98985.31
2022-11-22T18:03:42.593Z,98994.84
2022-11-22T18:06:32.149Z,98998.91
2022-11-22T18:09:20.720Z,98997.16
2022-11-22T18:12:09.468Z,98996.69
2022-11-22T18:14:58.029Z,98999.50
2022-11-22T18:17:46.657Z,98995.41
2022-11-22T18:20:38.232Z,98997.50
2022-11-22T18:23:28.077Z,98993.56
2022-11-22T18:32:33.901Z,99004.78
2022-11-22T18:35:23.571Z,99004.72
2022-11-22T18:38:13.754Z,99001.94
2022-11-22T18:41:02.941Z,99006.78
2022-11-22T18:43:51.488Z,99012.38
2022-11-22T18:46:40.653Z,99020.03
2022-11-22T18:49:29.957Z,99016.31
2022-11-22T18:52:18.964Z,99016.91
2022-11-22T18:55:10.194Z,99023.72
2022-11-22T18:57:58.825Z,99024.06
2022-11-22T19:00:53.646Z,99033.97
2022-11-22T19:03:42.778Z,99041.06
2022-11-22T19:06:31.901Z,99036.16
2022-11-22T19:09:20.515Z,99034.53
2022-11-22T19:12:10.614Z,99028.50
2022-11-22T19:14:59.270Z,99026.84
2022-11-22T19:17:47.862Z,99030.91
2022-11-22T19:20:54.608Z,99021.06
2022-11-22T19:23:44.275Z,99020.72
2022-11-22T19:26:32.870Z,99020.72
2022-11-22T19:29:22.995Z,99037.19
2022-11-22T19:32:11.643Z,99053.09
2022-11-22T19:35:00.248Z,99047.41
2022-11-22T19:37:48.898Z,99046.84
2022-11-22T19:40:37.490Z,99056.59
2022-11-22T19:43:26.152Z,99049.75
2022-11-22T19:46:16.426Z,99079.59
2022-11-22T19:49:05.721Z,99070.53
2022-11-22T19:51:54.297Z,99069.03
2022-11-22T19:54:42.872Z,99069.50
2022-11-22T19:57:31.504Z,99078.66
2022-11-22T20:00:20.204Z,99077.72
2022-11-22T20:03:13.143Z,99088.53
2022-11-22T20:06:02.524Z,99080.41
2022-11-22T20:08:51.251Z,99080.75
2022-11-22T20:11:40.744Z,99081.81
2022-11-22T20:14:29.734Z,99079.81
2022-11-22T20:17:18.764Z,99068.91
2022-11-22T20:20:10.315Z,99079.59
2022-11-22T20:22:58.922Z,99082.28
2022-11-22T20:25:47.547Z,99084.78
2022-11-22T20:28:36.393Z,99083.09
2022-11-22T20:31:25.584Z,99085.75
2022-11-22T20:34:15.697Z,99083.63
2022-11-22T20:37:06.958Z,99084.75
2022-11-22T20:39:55.584Z,99084.16
2022-11-22T20:42:44.341Z,99091.72
2022-11-22T20:45:32.926Z,99081.03
2022-11-22T20:48:21.560Z,99086.25
2022-11-22T20:51:11.645Z,99093.34
2022-11-22T20:54:01.612Z,99090.19
2022-11-22T20:56:50.274Z,99091.59
2022-11-22T20:59:38.921Z,99104.41
2022-11-22T21:02:27.607Z,99095.69
2022-11-22T21:05:16.413Z,99092.53
2022-11-22T21:08:05.591Z,99086.09
2022-11-22T21:11:03.823Z,99093.06
2022-11-22T21:13:52.946Z,99097.50
2022-11-22T21:16:41.957Z,99094.84
2022-11-22T21:19:30.620Z,99083.13
2022-11-22T21:22:19.240Z,99088.47
2022-11-22T21:25:11.704Z,99092.03
2022-11-22T21:28:01.639Z,99092.66
2022-11-22T21:30:54.850Z,99094.16
2022-11-22T21:33:43.622Z,99090.84
2022-11-22T21:36:32.282Z,99098.06
2022-11-22T21:39:20.919Z,99096.66
2022-11-22T21:42:09.872Z,99094.03
2022-11-22T21:44:59.879Z,99090.25
2022-11-22T21:47:49.693Z,99088.81
2022-11-22T21:50:38.338Z,99093.44
2022-11-22T21:53:28.691Z,99100.06
2022-11-22T21:56:17.283Z,99097.22
2022-11-22T21:59:05.893Z,99095.13
2022-11-22T22:01:56.017Z,99112.44
2022-11-22T22:04:44.732Z,99106.72
2022-11-22T22:10:42.125Z,99090.72
2022-11-22T22:13:31.749Z,99099.41
2022-11-22T22:16:23.111Z,99096.53
2022-11-22T22:19:13.047Z,99107.63
2022-11-22T22:22:01.597Z,99109.41
2022-11-22T22:24:50.194Z,99102.91
2022-11-22T22:27:38.786Z,99103.16
2022-11-22T22:30:27.356Z,99101.13
2022-11-22T22:33:15.975Z,99111.78
2022-11-22T22:36:06.390Z,99107.03
2022-11-22T22:38:55.748Z,99106.00
2022-11-22T22:41:44.377Z,99102.75
2022-11-22T22:44:33.349Z,99105.25
2022-11-22T22:47:22.166Z,99109.75
2022-11-22T22:50:11.618Z,99110.56
2022-11-22T22:53:01.654Z,99111.00
2022-11-22T22:55:55.252Z,99111.00
2022-11-22T22:58:44.190Z,99108.56
2022-11-22T23:01:33.397Z,99118.41
2022-11-22T23:04:22.455Z,99112.50
2022-11-22T23:07:11.070Z,99110.28
2022-11-22T23:10:01.107Z,99107.38
2022-11-22T23:12:49.773Z,99112.28
2022-11-22T23:15:57.265Z,99114.53
2022-11-22T23:18:47.403Z,99128.34
2022-11-22T23:21:36.809Z,99125.56
2022-11-22T23:24:25.583Z,99127.44
2022-11-22T23:27:15.565Z,99128.84
2022-11-22T23:30:04.654Z,99117.56
2022-11-22T23:32:53.334Z,99118.94
2022-11-22T23:35:41.971Z,99119.19
2022-11-22T23:38:30.642Z,99121.63
2022-11-22T23:41:20.925Z,99115.25
2022-11-22T23:44:11.304Z,99122.22
2022-11-22T23:46:59.877Z,99118.28
2022-11-22T23:49:48.547Z,99118.28
2022-11-22T23:52:37.298Z,99124.41
2022-11-22T23:55:26.012Z,99126.78
2022-11-22T23:58:14.663Z,99137.03
